• Join FlightAware (Why Join?)
  • Login
  • US Flag 
07:18AM EDT


 

Airport Tracker/Info


-or-


 

Live Flight TrackerFlight Track Log ✈ EGF2984 ✈ 27-Apr-2013 ✈ KDFW - KCSG

Flight Track Log - Related Links

Times and Time Zones

All times are in EDT time to prevent confusion due to time zone crossing. See the EGF2984 flight status page for this flight to view local times or setup timezone preferences in your user account.

Time Position Orientation Groundspeed Altitude Reporting Facility
EDT Latitude Longitude Course Direction KTS MPH feet Rate Location/Type
08:09PM 32.9167 -97.0333 65° Northeast 163 188 1,400  Level Dallas / Fort Worth TRACON
08:10PM 32.9667 -97.0167 16° North 206 237 3,300 2,100 Climbing Dallas / Fort Worth TRACON
08:11PM 32.6833 -96.8056 90° East  Level FlightAware Approximate
08:11PM 33.0167 -96.9833 29° Northeast 250 288 5,500  Level Dallas / Fort Worth TRACON
08:12PM 32.7263 -96.6714 68° East  Level FlightAware Approximate
08:12PM 32.9947 -96.8264 99° East 299 344 9,500  Level Fort Worth Center
08:13PM 32.7714 -96.5378 65° Northeast  Level FlightAware Approximate
08:13PM 32.9694 -96.7375 109° East 306 352 10,900  Level Fort Worth Center
08:14PM 32.8218 -96.4067 65° Northeast  Level FlightAware Approximate
08:14PM 32.9353 -96.6064 107° East 353 406 12,000  Level Fort Worth Center
08:15PM 32.9072 -96.4953 107° East 382 440 13,000 480 Climbing Fort Worth Center
08:16PM 32.8708 -96.3572 107° East 395 455 13,000  Level Fort Worth Center
08:17PM 32.8656 -96.2361 93° East 401 461 13,100 900 Climbing Fort Worth Center
08:18PM 32.8703 -96.0878 88° East 406 467 14,900 1,860 Climbing Fort Worth Center
08:19PM 32.8711 -95.9689 89° East 401 461 16,800 1,860 Climbing Fort Worth Center
08:20PM 32.8756 -95.8206 88° East 401 461 18,700 1,740 Climbing Fort Worth Center
08:21PM 32.8761 -95.7017 90° East 401 461 20,400 1,560 Climbing Fort Worth Center
08:22PM 32.8783 -95.5656 89° East 406 467 21,900 1,560 Climbing Fort Worth Center
08:23PM 32.8803 -95.4197 89° East 422 486 23,500 1,560 Climbing Fort Worth Center
08:24PM 32.8903 -95.2661 86° East 427 491 25,100 1,560 Climbing Fort Worth Center
08:25PM 32.9169 -95.1219 78° East 432 497 26,700 1,500 Climbing Fort Worth Center
08:26PM 32.9372 -94.9803 80° East 432 497 28,200 1,440 Climbing Fort Worth Center
08:27PM 32.9594 -94.8361 80° East 432 497 29,700 1,320 Climbing Fort Worth Center
08:28PM 32.9814 -94.6942 80° East 432 497 30,900 600 Climbing Fort Worth Center
08:29PM 33.0053 -94.5400 79° East 448 516 31,000  Climbing Fort Worth Center
08:30PM 33.0264 -94.3758 81° East 475 547 31,000  Level Fort Worth Center
08:31PM 33.0514 -94.2114 80° East 493 567 31,000  Level Fort Worth Center
08:32PM 33.0742 -94.0444 81° East 505 581 31,000 120 Level Fort Worth Center
08:33PM 33.0969 -93.8800 81° East 505 581 31,300 900 Climbing Fort Worth Center
08:34PM 33.1214 -93.7153 80° East 505 581 32,800 840 Climbing Fort Worth Center
08:35PM 33.1458 -93.5556 80° East 505 581 33,000 60 Climbing Fort Worth Center
08:36PM 33.1678 -93.3908 81° East 505 581 33,000  Level Fort Worth Center
08:37PM 33.1939 -93.2308 79° East 500 575 33,000  Level Fort Worth Center
08:38PM 33.2153 -93.0658 81° East 500 575 33,000 360 Level Fort Worth Center
08:39PM 33.2350 -92.9086 81° East 494 568 33,800 960 Climbing Fort Worth Center
08:40PM 33.2772 -92.7572 72° East 481 554 35,000 600 Climbing Fort Worth Center
08:41PM 33.3133 -92.6039 74° East 476 548 35,000  Level Fort Worth Center
08:42PM 33.3194 -92.4419 87° East 476 548 35,000  Level Fort Worth Center
08:44PM 33.3219 -92.2169 89° East 481 554 35,000  Level Memphis Center
08:45PM 33.3097 -92.0475 95° East 491 565 35,000  Level Memphis Center
08:46PM 33.2911 -91.8831 98° East 503 579 35,000  Level Memphis Center
08:47PM 33.2556 -91.7036 103° East 503 579 35,000  Level Memphis Center
08:48PM 33.2092 -91.5492 110° East 498 573 35,000  Level Memphis Center
08:49PM 33.1644 -91.3994 110° East 485 558 35,000  Level Memphis Center
08:50PM 33.1197 -91.2453 109° East 485 558 35,000  Level Memphis Center
08:51PM 33.0789 -91.0986 108° East 485 558 35,000  Level Memphis Center
08:52PM 33.0422 -90.9472 106° East 479 551 35,000  Level Memphis Center
08:53PM 33.0344 -90.7908 93° East 474 545 35,000  Level Memphis Center
08:54PM 33.0244 -90.6347 94° East 469 540 35,000  Level Memphis Center
08:55PM 33.0164 -90.4761 93° East 469 540 35,000  Level Memphis Center
08:56PM 33.0039 -90.3200 95° East 474 545 35,000  Level Memphis Center
08:57PM 32.9933 -90.1617 95° East 474 545 35,000  Level Memphis Center
08:58PM 32.9844 -90.0106 94° East 474 545 35,000  Level Memphis Center
08:59PM 32.9714 -89.8497 95° East 474 545 35,000  Level Memphis Center
09:00PM 32.9622 -89.6864 94° East 486 559 35,000  Level Memphis Center
09:01PM 32.9489 -89.5353 96° East 478 550 35,000  Level Memphis Center
09:02PM 32.9372 -89.3819 95° East 473 544 35,000  Level Memphis Center
09:03PM 32.9278 -89.2261 94° East 473 544 35,000  Level Memphis Center
09:04PM 32.9136 -89.0706 96° East 473 544 35,000  Level Memphis Center
09:05PM 32.9014 -88.9147 95° East 473 544 35,000  Level Memphis Center
09:06PM 32.8892 -88.7642 95° East 468 539 35,000  Level Memphis Center
09:07PM 32.8767 -88.6058 95° East 468 539 35,000  Level Memphis Center
09:08PM 32.8639 -88.4553 96° East 468 539 35,000  Level Memphis Center
09:10PM 32.8347 -88.1400 96° East 480 552 35,000  Level Atlanta Center
09:11PM 32.8194 -87.9714 96° East 475 547 35,000  Level Atlanta Center
09:12PM 32.8075 -87.8200 95° East 468 539 35,000  Level Atlanta Center
09:13PM 32.7972 -87.6689 95° East 468 539 35,000 -300 Level Atlanta Center
09:14PM 32.7808 -87.5175 97° East 468 539 34,400 -780 Descending Atlanta Center
09:15PM 32.7642 -87.3636 97° East 463 533 33,500 -960 Descending Atlanta Center
09:16PM 32.7494 -87.2100 96° East 468 539 32,500 -1,380 Descending Atlanta Center
09:17PM 32.7347 -87.0539 96° East 468 539 30,800 -1,860 Descending Atlanta Center
09:18PM 32.7172 -86.9028 98° East 468 539 28,800 -2,040 Descending Atlanta Center
09:19PM 32.7061 -86.7517 95° East 461 531 26,800 -1,980 Descending Atlanta Center
09:20PM 32.6928 -86.5983 96° East 466 536 24,900 -1,440 Descending Atlanta Center
09:21PM 32.6792 -86.4425 96° East 466 536 24,000 -1,620 Descending Atlanta Center
09:22PM 32.6675 -86.2917 95° East 466 536 21,700 -2,700 Descending Atlanta Center
09:23PM 32.6533 -86.1458 97° East 459 528 18,700 -2,700 Descending Atlanta Center
09:24PM 32.6328 -86.0047 100° East 444 511 16,300 -2,400 Descending Atlanta Center
09:25PM 32.6181 -85.8686 97° East 425 489 14,000 -1,860 Descending Atlanta Center
09:26PM 32.6056 -85.7303 96° East 420 483 12,600 -1,620 Descending Atlanta Center
09:27PM 32.5903 -85.6019 98° East 413 475 10,800 -1,500 Descending Atlanta Center
09:28PM 32.5772 -85.4956 98° East 370 426 9,600 -1,500 Descending Atlanta Center
09:29PM 32.5678 -85.3994 97° East 326 375 7,800 -1,800 Descending Atlanta Center
09:30PM 32.5561 -85.3081 99° East 293 337 6,100 -1,740 Descending Atlanta Center
09:31PM 32.5486 -85.2217 96° East 274 315 4,400 -1,500 Descending Atlanta Center
09:32PM 32.5369 -85.1403 100° East 261 300 3,100 -1,020 Descending Atlanta Center
09:33PM 32.5314 -85.0686 95° East 234 269 2,400 -720 Descending Atlanta Center